createdAt,value
2018-09-29T00:00:20.363Z,1020.66
2018-09-29T00:01:00.737Z,1020.63
2018-09-29T00:01:41.412Z,1020.63
2018-09-29T00:02:21.501Z,1020.63
2018-09-29T00:03:02.023Z,1020.63
2018-09-29T00:03:42.342Z,1020.6
2018-09-29T00:04:22.771Z,1020.64
2018-09-29T00:05:03.281Z,1020.64
2018-09-29T00:05:43.591Z,1020.67
2018-09-29T00:06:24.110Z,1020.69
2018-09-29T00:07:04.520Z,1020.68
2018-09-29T00:07:44.999Z,1020.7
2018-09-29T00:08:25.514Z,1020.71
2018-09-29T00:09:06.121Z,1020.73
2018-09-29T00:09:46.555Z,1020.73
2018-09-29T00:10:26.910Z,1020.73
2018-09-29T00:11:08.173Z,1020.72
2018-09-29T00:11:48.054Z,1020.78
2018-09-29T00:12:28.425Z,1020.76
2018-09-29T00:13:09.001Z,1020.76
2018-09-29T00:13:49.278Z,1020.77
2018-09-29T00:14:29.706Z,1020.78
2018-09-29T00:15:10.171Z,1020.74
2018-09-29T00:15:50.589Z,1020.73
2018-09-29T00:16:30.979Z,1020.69
2018-09-29T00:17:11.363Z,1020.69
2018-09-29T00:17:51.803Z,1020.68
2018-09-29T00:18:32.921Z,1020.64
2018-09-29T00:19:13.075Z,1020.66
2018-09-29T00:19:53.508Z,1020.66
2018-09-29T00:20:34.109Z,1020.67
2018-09-29T00:21:14.517Z,1020.68
2018-09-29T00:21:55.071Z,1020.73
2018-09-29T00:22:35.406Z,1020.71
2018-09-29T00:23:15.895Z,1020.69
2018-09-29T00:23:56.422Z,1020.7
2018-09-29T00:24:36.882Z,1020.69
2018-09-29T00:25:17.734Z,1020.64
2018-09-29T00:25:58.376Z,1020.64
2018-09-29T00:26:38.812Z,1020.62
2018-09-29T00:27:19.613Z,1020.59
2018-09-29T00:28:00.313Z,1020.61
2018-09-29T00:28:40.711Z,1020.6
2018-09-29T00:29:21.227Z,1020.6
2018-09-29T00:30:01.750Z,1020.6
2018-09-29T00:30:42.546Z,1020.6
2018-09-29T00:31:22.888Z,1020.6
2018-09-29T00:32:03.370Z,1020.59
2018-09-29T00:32:43.858Z,1020.58
2018-09-29T00:33:24.304Z,1020.55
2018-09-29T00:34:04.597Z,1020.55
2018-09-29T00:34:45.053Z,1020.54
2018-09-29T00:35:25.408Z,1020.52
2018-09-29T00:36:05.807Z,1020.54
2018-09-29T00:36:46.276Z,1020.54
2018-09-29T00:37:26.671Z,1020.52
2018-09-29T00:38:07.063Z,1020.53
2018-09-29T00:38:47.605Z,1020.51
2018-09-29T00:39:27.977Z,1020.47
2018-09-29T00:40:08.411Z,1020.47
2018-09-29T00:40:48.813Z,1020.48
2018-09-29T00:41:29.177Z,1020.48
2018-09-29T00:42:09.603Z,1020.45
2018-09-29T00:42:50.051Z,1020.45
2018-09-29T00:43:30.383Z,1020.45
2018-09-29T00:44:10.792Z,1020.44
2018-09-29T00:44:51.184Z,1020.42
2018-09-29T00:45:31.679Z,1020.44
2018-09-29T00:46:12.053Z,1020.44
2018-09-29T00:46:52.468Z,1020.43
2018-09-29T00:47:32.939Z,1020.47
2018-09-29T00:48:13.255Z,1020.49
2018-09-29T00:48:53.745Z,1020.45
2018-09-29T00:49:34.138Z,1020.45
2018-09-29T00:51:32.418Z,1020.47
2018-09-29T00:52:10.362Z,1020.47
2018-09-29T00:52:50.697Z,1020.5
2018-09-29T00:53:31.118Z,1020.49
2018-09-29T00:54:11.583Z,1020.51
2018-09-29T00:54:51.934Z,1020.51
2018-09-29T00:55:32.311Z,1020.51
2018-09-29T00:56:12.753Z,1020.49
2018-09-29T00:56:53.116Z,1020.46
2018-09-29T00:57:33.599Z,1020.46
2018-09-29T00:58:14.071Z,1020.47
2018-09-29T00:58:54.421Z,1020.49
2018-09-29T00:59:34.792Z,1020.49
2018-09-29T01:00:15.376Z,1020.49
2018-09-29T01:00:55.573Z,1020.49
2018-09-29T01:01:36.090Z,1020.5
2018-09-29T01:02:16.459Z,1020.53
2018-09-29T01:02:56.840Z,1020.51
2018-09-29T01:03:37.176Z,1020.52
2018-09-29T01:04:17.668Z,1020.52
2018-09-29T01:04:58.024Z,1020.53
2018-09-29T01:05:38.386Z,1020.53
2018-09-29T01:06:18.813Z,1020.49
2018-09-29T01:06:59.231Z,1020.48
2018-09-29T01:07:39.628Z,1020.45
2018-09-29T01:08:19.972Z,1020.44
2018-09-29T01:09:00.417Z,1020.47
2018-09-29T01:09:41.144Z,1020.48
2018-09-29T01:10:21.329Z,1020.5
2018-09-29T01:11:01.729Z,1020.53
2018-09-29T01:11:42.006Z,1020.57
2018-09-29T01:12:22.543Z,1020.56
2018-09-29T01:13:03.047Z,1020.53
2018-09-29T01:13:43.324Z,1020.52
2018-09-29T01:14:23.862Z,1020.51
2018-09-29T01:15:04.224Z,1020.51
2018-09-29T01:15:44.755Z,1020.53
2018-09-29T01:16:25.258Z,1020.5
2018-09-29T01:17:05.526Z,1020.5
2018-09-29T01:17:45.937Z,1020.52
2018-09-29T01:18:26.361Z,1020.48
2018-09-29T01:19:06.812Z,1020.49
2018-09-29T01:19:47.170Z,1020.51
2018-09-29T01:20:27.633Z,1020.5
2018-09-29T01:21:08.096Z,1020.49
2018-09-29T01:21:48.510Z,1020.5
2018-09-29T01:22:28.897Z,1020.54
2018-09-29T01:23:09.351Z,1020.53
2018-09-29T01:23:49.707Z,1020.52
2018-09-29T01:24:30.194Z,1020.51
2018-09-29T01:25:10.595Z,1020.52
2018-09-29T01:25:50.927Z,1020.54
2018-09-29T01:26:31.398Z,1020.51
2018-09-29T01:27:11.789Z,1020.52
2018-09-29T01:27:52.182Z,1020.52
2018-09-29T01:28:32.620Z,1020.5
2018-09-29T01:29:13.030Z,1020.52
2018-09-29T01:29:53.340Z,1020.56
2018-09-29T01:30:33.830Z,1020.55
2018-09-29T01:31:14.251Z,1020.55
2018-09-29T01:31:54.584Z,1020.53
2018-09-29T01:32:34.957Z,1020.54
2018-09-29T01:33:15.481Z,1020.54
2018-09-29T01:33:55.717Z,1020.53
2018-09-29T01:34:36.133Z,1020.53
2018-09-29T01:35:16.581Z,1020.47
2018-09-29T01:35:57.070Z,1020.46
2018-09-29T01:36:37.430Z,1020.49
2018-09-29T01:37:17.813Z,1020.48
2018-09-29T01:37:58.219Z,1020.5
2018-09-29T01:38:38.684Z,1020.49
2018-09-29T01:39:19.057Z,1020.48
2018-09-29T01:39:59.440Z,1020.48
2018-09-29T01:40:39.878Z,1020.51
2018-09-29T01:41:20.244Z,1020.51
2018-09-29T01:43:49.048Z,1020.47
2018-09-29T01:44:29.443Z,1020.42
2018-09-29T01:45:09.935Z,1020.41
2018-09-29T01:45:50.245Z,1020.4
2018-09-29T01:46:30.677Z,1020.38
2018-09-29T01:47:11.085Z,1020.38
2018-09-29T01:47:51.516Z,1020.34
2018-09-29T01:48:31.898Z,1020.35
2018-09-29T01:49:12.342Z,1020.35
2018-09-29T01:49:52.707Z,1020.34
2018-09-29T01:51:50.459Z,1020.37
2018-09-29T01:52:30.809Z,1020.37
2018-09-29T01:53:11.204Z,1020.33
2018-09-29T01:53:51.613Z,1020.34
2018-09-29T01:55:49.103Z,1020.35
2018-09-29T01:56:29.438Z,1020.32
2018-09-29T01:57:09.834Z,1020.31
2018-09-29T01:57:50.275Z,1020.3
2018-09-29T01:58:30.642Z,1020.3
2018-09-29T01:59:11.072Z,1020.32
2018-09-29T01:59:51.485Z,1020.27
2018-09-29T02:00:31.922Z,1020.3
2018-09-29T02:01:12.304Z,1020.31
2018-09-29T02:01:52.736Z,1020.29
2018-09-29T02:02:33.115Z,1020.26
2018-09-29T02:03:13.545Z,1020.27
2018-09-29T02:05:41.296Z,1020.27
2018-09-29T02:06:21.603Z,1020.27
2018-09-29T02:07:02.045Z,1020.27
2018-09-29T02:07:42.417Z,1020.25
2018-09-29T02:08:22.864Z,1020.24
2018-09-29T02:09:03.295Z,1020.23
2018-09-29T02:09:43.712Z,1020.21
2018-09-29T02:10:24.098Z,1020.2
2018-09-29T02:11:04.499Z,1020.22
2018-09-29T02:11:44.915Z,1020.23
2018-09-29T02:13:57.564Z,1020.22
2018-09-29T02:14:37.864Z,1020.23
2018-09-29T02:15:18.301Z,1020.22
2018-09-29T02:15:58.653Z,1020.2
2018-09-29T02:16:39.068Z,1020.19
2018-09-29T02:17:19.481Z,1020.22
2018-09-29T02:19:32.066Z,1020.26
2018-09-29T02:20:12.390Z,1020.26
2018-09-29T02:20:52.776Z,1020.26
2018-09-29T02:21:33.230Z,1020.25
2018-09-29T02:22:13.615Z,1020.24
2018-09-29T02:22:54.012Z,1020.21
2018-09-29T02:23:34.456Z,1020.21
2018-09-29T02:24:14.820Z,1020.23
2018-09-29T02:24:55.238Z,1020.23
2018-09-29T02:25:35.678Z,1020.26
2018-09-29T02:26:16.096Z,1020.24
2018-09-29T02:26:56.455Z,1020.26
2018-09-29T02:27:36.856Z,1020.32
2018-09-29T02:28:17.267Z,1020.31
2018-09-29T02:28:57.807Z,1020.36
2018-09-29T02:29:38.137Z,1020.33
2018-09-29T02:30:18.535Z,1020.32
2018-09-29T02:30:58.952Z,1020.37
2018-09-29T02:31:39.366Z,1020.32
2018-09-29T02:32:19.769Z,1020.36
2018-09-29T02:33:00.156Z,1020.35
2018-09-29T02:33:40.571Z,1020.34
2018-09-29T02:34:20.980Z,1020.32
2018-09-29T02:35:01.396Z,1020.32
2018-09-29T02:35:41.790Z,1020.33
2018-09-29T02:36:22.175Z,1020.29
2018-09-29T02:37:02.581Z,1020.3
2018-09-29T02:37:42.972Z,1020.28
2018-09-29T02:38:23.412Z,1020.27
2018-09-29T02:39:03.824Z,1020.32
2018-09-29T02:39:44.218Z,1020.25
2018-09-29T02:40:24.633Z,1020.29
2018-09-29T02:41:05.058Z,1020.28
2018-09-29T02:41:45.427Z,1020.33
2018-09-29T02:42:25.862Z,1020.29
2018-09-29T02:44:53.755Z,1020.31
2018-09-29T02:45:34.176Z,1020.32
2018-09-29T02:46:14.569Z,1020.28
2018-09-29T02:46:55.008Z,1020.36
2018-09-29T02:47:35.400Z,1020.34
2018-09-29T02:48:15.794Z,1020.34
2018-09-29T02:48:56.224Z,1020.38
2018-09-29T02:49:36.646Z,1020.39
2018-09-29T02:50:17.099Z,1020.37
2018-09-29T02:50:57.515Z,1020.37
2018-09-29T02:51:37.925Z,1020.38
2018-09-29T02:53:30.625Z,1020.34
2018-09-29T02:54:11.793Z,1020.33
2018-09-29T02:54:52.187Z,1020.3
2018-09-29T02:55:32.586Z,1020.31
2018-09-29T02:56:12.985Z,1020.34
2018-09-29T02:56:53.373Z,1020.31
2018-09-29T02:57:33.764Z,1020.32
2018-09-29T02:58:14.181Z,1020.32
2018-09-29T02:58:54.562Z,1020.35
2018-09-29T02:59:34.998Z,1020.34
2018-09-29T03:00:15.373Z,1020.31
2018-09-29T03:00:55.830Z,1020.33
2018-09-29T03:02:55.001Z,1020.35
2018-09-29T03:03:35.936Z,1020.33
2018-09-29T03:04:16.349Z,1020.36
2018-09-29T03:04:56.744Z,1020.32
2018-09-29T03:05:37.125Z,1020.32
2018-09-29T03:07:50.909Z,1020.29
2018-09-29T03:08:31.198Z,1020.32
2018-09-29T03:09:11.596Z,1020.34
2018-09-29T03:09:52.011Z,1020.32
2018-09-29T03:10:32.390Z,1020.34
2018-09-29T03:11:12.803Z,1020.33
2018-09-29T03:11:53.230Z,1020.33
2018-09-29T03:12:33.706Z,1020.37
2018-09-29T03:13:14.050Z,1020.36
2018-09-29T03:13:54.470Z,1020.38
2018-09-29T03:14:34.882Z,1020.39
2018-09-29T03:15:15.284Z,1020.36
2018-09-29T03:17:28.415Z,1020.37
2018-09-29T03:18:08.846Z,1020.39
2018-09-29T03:18:49.279Z,1020.36
2018-09-29T03:19:29.695Z,1020.37
2018-09-29T03:20:10.158Z,1020.37
2018-09-29T03:20:50.518Z,1020.38
2018-09-29T03:21:30.925Z,1020.36
2018-09-29T03:22:11.323Z,1020.31
2018-09-29T03:22:51.714Z,1020.35
2018-09-29T03:23:32.145Z,1020.37
2018-09-29T03:24:12.501Z,1020.34
2018-09-29T03:26:10.225Z,1020.36
2018-09-29T03:26:50.470Z,1020.38
2018-09-29T03:27:30.907Z,1020.32
2018-09-29T03:28:11.296Z,1020.32
2018-09-29T03:28:51.712Z,1020.35
2018-09-29T03:29:32.101Z,1020.31
2018-09-29T03:30:12.540Z,1020.29
2018-09-29T03:30:52.982Z,1020.32
2018-09-29T03:31:33.419Z,1020.34
2018-09-29T03:32:13.849Z,1020.33
2018-09-29T03:32:54.239Z,1020.33
2018-09-29T03:33:34.611Z,1020.31
2018-09-29T03:35:47.315Z,1020.37
2018-09-29T03:36:27.702Z,1020.36
2018-09-29T03:37:08.097Z,1020.34
2018-09-29T03:37:48.497Z,1020.33
2018-09-29T03:40:17.034Z,1020.33
2018-09-29T03:40:57.402Z,1020.34
2018-09-29T03:41:37.820Z,1020.33
2018-09-29T03:42:18.208Z,1020.29
2018-09-29T03:42:58.592Z,1020.33
2018-09-29T03:43:39.023Z,1020.29
2018-09-29T03:44:19.471Z,1020.34
2018-09-29T03:44:59.875Z,1020.3
2018-09-29T03:45:40.278Z,1020.31
2018-09-29T03:46:20.702Z,1020.28
2018-09-29T03:47:01.102Z,1020.27
2018-09-29T03:47:41.490Z,1020.29
2018-09-29T03:48:21.894Z,1020.25
2018-09-29T03:49:02.301Z,1020.21
2018-09-29T03:49:42.791Z,1020.25
2018-09-29T03:50:23.165Z,1020.24
2018-09-29T03:51:03.573Z,1020.27
2018-09-29T03:51:44.006Z,1020.25
2018-09-29T03:52:24.463Z,1020.26
2018-09-29T03:53:04.829Z,1020.22
2018-09-29T03:53:45.346Z,1020.22
2018-09-29T03:54:25.731Z,1020.22
2018-09-29T03:55:06.245Z,1020.24
2018-09-29T03:55:46.628Z,1020.24
2018-09-29T03:56:27.004Z,1020.22
2018-09-29T03:57:07.406Z,1020.24
2018-09-29T03:57:47.805Z,1020.21
2018-09-29T03:58:28.190Z,1020.22
2018-09-29T03:59:08.640Z,1020.18
2018-09-29T03:59:48.985Z,1020.2
2018-09-29T04:00:29.423Z,1020.26
2018-09-29T04:01:09.865Z,1020.23
2018-09-29T04:01:50.262Z,1020.25
2018-09-29T04:02:30.649Z,1020.23
2018-09-29T04:03:11.110Z,1020.2
2018-09-29T04:03:51.550Z,1020.16
2018-09-29T04:04:31.917Z,1020.22
2018-09-29T04:05:12.295Z,1020.19
2018-09-29T04:05:52.753Z,1020.17
2018-09-29T04:07:52.777Z,1020.2
2018-09-29T04:08:32.000Z,1020.24
2018-09-29T04:09:12.387Z,1020.24
2018-09-29T04:09:54.490Z,1020.26
2018-09-29T04:10:34.916Z,1020.21
2018-09-29T04:11:15.325Z,1020.24
2018-09-29T04:11:55.754Z,1020.24
2018-09-29T04:12:36.214Z,1020.25
2018-09-29T04:13:16.550Z,1020.23
2018-09-29T04:13:57.018Z,1020.23
2018-09-29T04:14:37.438Z,1020.24
2018-09-29T04:15:17.813Z,1020.32
2018-09-29T04:15:58.224Z,1020.27
2018-09-29T04:16:38.609Z,1020.29
2018-09-29T04:17:19.003Z,1020.32
2018-09-29T04:17:59.409Z,1020.31
2018-09-29T04:18:39.845Z,1020.27
2018-09-29T04:19:20.242Z,1020.3
2018-09-29T04:20:00.620Z,1020.29
2018-09-29T04:20:41.019Z,1020.27
2018-09-29T04:21:21.392Z,1020.26
2018-09-29T04:22:01.821Z,1020.23
2018-09-29T04:24:34.630Z,1020.29
2018-09-29T04:25:14.706Z,1020.3
2018-09-29T04:25:55.144Z,1020.3
2018-09-29T04:26:35.529Z,1020.31
2018-09-29T05:07:34.377Z,1020.33
2018-09-29T05:08:21.901Z,1020.36
2018-09-29T05:09:09.300Z,1020.26
2018-09-29T05:09:48.078Z,1020.36
2018-09-29T05:10:28.530Z,1020.36
2018-09-29T05:11:08.896Z,1020.33
2018-09-29T05:11:49.294Z,1020.34
2018-09-29T05:12:29.768Z,1020.36
2018-09-29T05:13:10.146Z,1020.33
2018-09-29T05:13:50.586Z,1020.31
2018-09-29T05:14:30.955Z,1020.34
2018-09-29T05:15:11.344Z,1020.34
2018-09-29T05:15:51.737Z,1020.34
2018-09-29T05:16:32.167Z,1020.34
2018-09-29T05:17:12.587Z,1020.33
2018-09-29T05:17:52.922Z,1020.31
2018-09-29T05:18:33.360Z,1020.37
2018-09-29T05:19:13.740Z,1020.36
2018-09-29T05:19:54.144Z,1020.35
2018-09-29T05:20:34.632Z,1020.41
2018-09-29T05:21:14.986Z,1020.41
2018-09-29T05:21:55.381Z,1020.38
2018-09-29T05:22:35.781Z,1020.41
2018-09-29T05:24:51.325Z,1020.39
2018-09-29T05:25:30.022Z,1020.41
2018-09-29T05:26:10.390Z,1020.43
2018-09-29T05:26:50.822Z,1020.45
2018-09-29T05:30:25.683Z,1020.48
2018-09-29T05:31:05.236Z,1020.55
2018-09-29T05:31:45.690Z,1020.48
2018-09-29T05:32:26.016Z,1020.46
2018-09-29T05:33:06.432Z,1020.53
2018-09-29T05:33:46.847Z,1020.51
2018-09-29T05:34:27.268Z,1020.54
2018-09-29T05:35:07.681Z,1020.51
2018-09-29T05:35:48.065Z,1020.51
2018-09-29T05:36:28.468Z,1020.51
2018-09-29T05:37:08.892Z,1020.48
2018-09-29T05:37:49.287Z,1020.49
2018-09-29T05:38:29.736Z,1020.53
2018-09-29T05:39:10.114Z,1020.56
2018-09-29T05:39:50.535Z,1020.56
2018-09-29T05:40:30.953Z,1020.59
2018-09-29T05:41:11.408Z,1020.62
2018-09-29T05:41:51.773Z,1020.58
2018-09-29T05:42:32.191Z,1020.58
2018-09-29T05:43:12.600Z,1020.6
2018-09-29T05:43:53.028Z,1020.61
2018-09-29T05:44:33.400Z,1020.61
2018-09-29T05:45:13.875Z,1020.6
2018-09-29T05:45:54.197Z,1020.68
2018-09-29T05:46:34.601Z,1020.71
2018-09-29T05:47:15.024Z,1020.66
2018-09-29T05:47:55.446Z,1020.66
2018-09-29T05:48:35.866Z,1020.67
2018-09-29T05:49:16.232Z,1020.66
2018-09-29T05:49:56.674Z,1020.63
2018-09-29T05:50:37.024Z,1020.64
2018-09-29T05:51:17.425Z,1020.58
2018-09-29T05:51:57.816Z,1020.62
2018-09-29T05:52:38.211Z,1020.65
2018-09-29T05:53:18.629Z,1020.66
2018-09-29T05:53:59.209Z,1020.65
2018-09-29T05:54:39.455Z,1020.68
2018-09-29T05:55:19.829Z,1020.69
2018-09-29T05:56:00.237Z,1020.68
2018-09-29T05:56:40.624Z,1020.68
2018-09-29T05:57:21.091Z,1020.69
2018-09-29T05:58:01.466Z,1020.69
2018-09-29T05:58:41.872Z,1020.69
2018-09-29T05:59:22.277Z,1020.72
2018-09-29T06:00:02.700Z,1020.71
2018-09-29T06:00:43.219Z,1020.76
2018-09-29T06:01:23.476Z,1020.73
2018-09-29T06:02:03.891Z,1020.76
2018-09-29T06:04:05.375Z,1020.78
2018-09-29T06:04:45.711Z,1020.74
2018-09-29T06:05:26.208Z,1020.75
2018-09-29T06:06:06.583Z,1020.76
2018-09-29T06:06:46.933Z,1020.76
2018-09-29T06:07:27.453Z,1020.79
2018-09-29T06:08:07.764Z,1020.76
2018-09-29T06:08:48.161Z,1020.8
2018-09-29T06:09:28.512Z,1020.78
2018-09-29T06:10:08.906Z,1020.76
2018-09-29T06:10:49.373Z,1020.82
2018-09-29T06:13:17.619Z,1020.85
2018-09-29T06:13:57.879Z,1020.85
2018-09-29T06:14:38.296Z,1020.84
2018-09-29T06:15:18.700Z,1020.89
2018-09-29T06:15:59.119Z,1020.87
2018-09-29T06:16:39.544Z,1020.86
2018-09-29T06:17:20.023Z,1020.86
2018-09-29T06:18:00.425Z,1020.88
2018-09-29T06:18:40.783Z,1020.87
2018-09-29T06:19:21.191Z,1020.86
2018-09-29T06:21:34.085Z,1020.89
2018-09-29T06:25:11.160Z,1020.9
2018-09-29T06:25:51.612Z,1020.89
2018-09-29T06:26:32.035Z,1020.87
2018-09-29T06:27:12.424Z,1020.87
2018-09-29T06:27:52.858Z,1020.91
2018-09-29T06:28:35.880Z,1020.89
2018-09-29T06:29:16.297Z,1020.91
2018-09-29T06:29:56.734Z,1020.9
2018-09-29T06:30:37.118Z,1020.93
2018-09-29T06:31:17.508Z,1020.94
2018-09-29T06:31:57.951Z,1020.94
2018-09-29T06:32:38.330Z,1020.95
2018-09-29T06:33:18.818Z,1020.95
2018-09-29T06:33:59.225Z,1020.95
2018-09-29T06:34:39.627Z,1020.96
2018-09-29T06:35:20.027Z,1020.96
2018-09-29T06:36:00.434Z,1020.96
2018-09-29T06:36:40.846Z,1020.97
2018-09-29T06:37:21.269Z,1020.91
2018-09-29T06:38:01.684Z,1020.93
2018-09-29T06:38:42.076Z,1020.93
2018-09-29T06:40:35.047Z,1020.9
2018-09-29T06:41:15.934Z,1020.89
2018-09-29T06:41:56.326Z,1020.89
2018-09-29T06:42:36.741Z,1020.91
2018-09-29T06:43:17.155Z,1020.92
2018-09-29T06:43:57.576Z,1020.94
2018-09-29T06:44:38.014Z,1020.89
2018-09-29T06:45:18.416Z,1020.89
2018-09-29T06:45:59.393Z,1020.93
2018-09-29T06:46:39.800Z,1020.9
2018-09-29T06:47:20.212Z,1020.86
2018-09-29T06:49:12.771Z,1020.89
2018-09-29T06:49:53.372Z,1020.85
2018-09-29T06:50:33.802Z,1020.85
2018-09-29T06:51:14.205Z,1020.87
2018-09-29T06:51:54.619Z,1020.91
2018-09-29T06:55:16.041Z,1020.95
2018-09-29T06:55:56.422Z,1020.92
2018-09-29T06:56:36.817Z,1020.91
2018-09-29T06:59:04.711Z,1020.91
2018-09-29T06:59:44.989Z,1020.96
2018-09-29T07:00:25.448Z,1020.98
2018-09-29T07:01:05.872Z,1020.93
2018-09-29T07:01:46.349Z,1020.94
2018-09-29T07:02:26.715Z,1020.9
2018-09-29T07:03:07.199Z,1020.99
2018-09-29T07:03:47.570Z,1020.98
2018-09-29T07:04:27.946Z,1020.95
2018-09-29T07:05:08.391Z,1020.97
2018-09-29T07:05:48.752Z,1020.99
2018-09-29T07:06:29.155Z,1021.02
2018-09-29T07:07:09.548Z,1020.99
2018-09-29T07:07:49.945Z,1021.02
2018-09-29T07:08:30.348Z,1021
2018-09-29T07:09:10.776Z,1020.98
2018-09-29T07:09:51.161Z,1020.97
2018-09-29T07:10:31.561Z,1020.98
2018-09-29T07:11:11.982Z,1020.98
2018-09-29T07:11:52.385Z,1020.97
2018-09-29T07:12:32.808Z,1020.97
2018-09-29T07:13:13.165Z,1020.94
2018-09-29T07:13:53.654Z,1020.96
2018-09-29T07:14:34.045Z,1020.95
2018-09-29T07:15:14.427Z,1020.92
2018-09-29T07:15:54.854Z,1020.9
2018-09-29T07:16:35.269Z,1020.92
2018-09-29T07:17:15.683Z,1020.93
2018-09-29T07:17:56.064Z,1020.9
2018-09-29T07:18:36.466Z,1020.95
2018-09-29T07:20:29.061Z,1020.93
2018-09-29T07:21:09.455Z,1020.95
2018-09-29T07:21:49.997Z,1020.97
2018-09-29T07:22:30.213Z,1020.95
2018-09-29T07:23:10.636Z,1020.94
2018-09-29T07:23:51.015Z,1020.95
2018-09-29T07:25:48.963Z,1020.99
2018-09-29T07:26:29.514Z,1021.02
2018-09-29T07:27:09.934Z,1021.02
2018-09-29T07:27:50.343Z,1021.06
2018-09-29T07:28:30.756Z,1021.08
2018-09-29T07:29:12.112Z,1021.09
2018-09-29T07:29:51.621Z,1021.12
2018-09-29T07:30:32.020Z,1021.11
2018-09-29T07:31:12.463Z,1021.13
2018-09-29T07:31:52.903Z,1021.09
2018-09-29T07:32:33.304Z,1021.09
2018-09-29T07:33:13.733Z,1021.03
2018-09-29T07:33:54.141Z,1021.02
2018-09-29T07:36:14.503Z,1021.05
2018-09-29T07:39:15.394Z,1021.1
2018-09-29T07:39:55.848Z,1021.06
2018-09-29T07:40:36.214Z,1021.06
2018-09-29T07:41:16.605Z,1021.09
2018-09-29T07:41:57.004Z,1021.08
2018-09-29T07:42:37.425Z,1021.09
2018-09-29T07:43:17.870Z,1021.16
2018-09-29T07:43:58.221Z,1021.13
2018-09-29T07:44:38.635Z,1021.13
2018-09-29T07:45:19.021Z,1021.11
2018-09-29T07:45:59.410Z,1021.13
2018-09-29T07:46:39.852Z,1021.1
2018-09-29T07:47:20.268Z,1021.13
2018-09-29T07:48:00.734Z,1021.11
2018-09-29T07:48:41.137Z,1021.11
2018-09-29T07:49:21.685Z,1021.1
2018-09-29T07:50:01.967Z,1021.09
2018-09-29T07:50:42.448Z,1021.1
2018-09-29T07:51:22.841Z,1021.1
2018-09-29T07:52:03.252Z,1021.12
2018-09-29T07:52:43.651Z,1021.14
2018-09-29T07:53:24.042Z,1021.16
2018-09-29T07:54:04.452Z,1021.13
2018-09-29T07:54:44.896Z,1021.16
2018-09-29T07:55:25.273Z,1021.14
2018-09-29T07:56:05.662Z,1021.07
2018-09-29T07:56:46.060Z,1021.11
2018-09-29T07:57:26.453Z,1021.12
2018-09-29T07:58:06.848Z,1021.11
2018-09-29T07:58:47.268Z,1021.12
2018-09-29T07:59:27.664Z,1021.13
2018-09-29T08:00:08.078Z,1021.1
2018-09-29T08:00:48.494Z,1021.11
2018-09-29T08:01:28.866Z,1021.11
2018-09-29T08:02:09.282Z,1021.08
2018-09-29T08:02:49.678Z,1021.07
2018-09-29T08:03:30.140Z,1021.07
2018-09-29T08:04:10.545Z,1021.04
2018-09-29T08:04:52.012Z,1021.07
2018-09-29T08:05:32.003Z,1021.07
2018-09-29T08:06:12.460Z,1021.02
2018-09-29T08:06:52.822Z,1021.03
2018-09-29T08:07:33.228Z,1021.07
2018-09-29T08:08:13.886Z,1021.05
2018-09-29T08:08:54.293Z,1021.08
2018-09-29T08:09:36.352Z,1021.03
2018-09-29T08:10:16.770Z,1021.08
2018-09-29T08:10:57.175Z,1021.06
2018-09-29T08:11:37.622Z,1021.02
2018-09-29T08:12:18.047Z,1021.04
2018-09-29T08:12:58.392Z,1021.05
2018-09-29T08:13:38.804Z,1021.02
2018-09-29T08:14:19.237Z,1021.03
2018-09-29T08:14:59.675Z,1021.06
2018-09-29T08:15:40.066Z,1021.04
2018-09-29T08:16:20.483Z,1021.07
2018-09-29T08:17:00.897Z,1021.02
2018-09-29T08:17:41.310Z,1021
2018-09-29T08:18:21.751Z,1020.98
2018-09-29T08:19:02.117Z,1021.03
2018-09-29T08:19:42.514Z,1021
2018-09-29T08:20:22.907Z,1020.99
2018-09-29T08:21:03.320Z,1020.97
2018-09-29T08:21:43.748Z,1020.94
2018-09-29T08:22:24.162Z,1020.95
2018-09-29T08:24:21.964Z,1020.85
2018-09-29T08:26:22.691Z,1020.88
2018-09-29T08:31:35.835Z,1020.82
2018-09-29T08:32:15.889Z,1020.81
2018-09-29T08:32:56.235Z,1020.84
2018-09-29T08:33:36.642Z,1020.86
2018-09-29T08:34:17.040Z,1020.81
2018-09-29T08:34:57.481Z,1020.81
2018-09-29T08:35:37.888Z,1020.78
2018-09-29T08:36:18.274Z,1020.83
2018-09-29T08:36:58.723Z,1020.8
2018-09-29T08:37:54.056Z,1020.84
2018-09-29T08:38:34.369Z,1020.81
2018-09-29T08:39:14.810Z,1020.8
2018-09-29T08:39:55.248Z,1020.8
2018-09-29T08:40:35.689Z,1020.77
2018-09-29T08:41:16.116Z,1020.77
2018-09-29T08:41:56.544Z,1020.74
2018-09-29T08:42:36.936Z,1020.76
2018-09-29T08:43:17.355Z,1020.72
2018-09-29T08:43:57.771Z,1020.68
2018-09-29T08:44:38.213Z,1020.67
2018-09-29T08:45:18.620Z,1020.7
2018-09-29T08:45:58.990Z,1020.71
2018-09-29T08:46:39.480Z,1020.68
2018-09-29T08:47:20.009Z,1020.68
2018-09-29T08:48:03.906Z,1020.69
2018-09-29T08:48:47.133Z,1020.69
2018-09-29T08:49:28.603Z,1020.69
2018-09-29T08:51:04.842Z,1020.71
2018-09-29T08:53:05.897Z,1020.7
2018-09-29T08:53:48.741Z,1020.69
2018-09-29T08:54:28.988Z,1020.69
2018-09-29T08:55:09.433Z,1020.71
2018-09-29T08:55:49.830Z,1020.7
2018-09-29T08:56:30.521Z,1020.72
2018-09-29T08:57:10.930Z,1020.75
2018-09-29T08:57:51.395Z,1020.74
2018-09-29T08:58:31.824Z,1020.71
2018-09-29T08:59:12.388Z,1020.64
2018-09-29T08:59:52.894Z,1020.71
2018-09-29T09:00:33.229Z,1020.69
2018-09-29T09:01:13.746Z,1020.66
2018-09-29T09:01:54.146Z,1020.67
2018-09-29T09:02:34.617Z,1020.64
2018-09-29T09:03:15.041Z,1020.66
2018-09-29T09:03:55.564Z,1020.66
2018-09-29T09:04:35.964Z,1020.69
2018-09-29T09:05:16.665Z,1020.72
2018-09-29T09:05:57.415Z,1020.71
2018-09-29T09:06:37.515Z,1020.68
2018-09-29T09:07:18.355Z,1020.72
2018-09-29T09:07:58.917Z,1020.74
2018-09-29T09:08:39.353Z,1020.72
2018-09-29T09:09:19.777Z,1020.71
2018-09-29T09:10:00.183Z,1020.71
2018-09-29T09:10:41.047Z,1020.68
2018-09-29T09:12:54.521Z,1020.75
2018-09-29T09:13:34.809Z,1020.69
2018-09-29T09:14:15.223Z,1020.73
2018-09-29T09:14:55.774Z,1020.69
2018-09-29T09:15:36.029Z,1020.71
2018-09-29T09:16:16.456Z,1020.72
2018-09-29T09:16:56.970Z,1020.74
2018-09-29T09:17:37.396Z,1020.73
2018-09-29T09:18:17.661Z,1020.72
2018-09-29T09:18:58.108Z,1020.79
2018-09-29T09:19:38.503Z,1020.75
2018-09-29T09:20:18.897Z,1020.71
2018-09-29T09:20:59.312Z,1020.68
2018-09-29T09:21:39.761Z,1020.7
2018-09-29T09:22:20.245Z,1020.71
2018-09-29T09:23:00.623Z,1020.78
2018-09-29T09:23:41.127Z,1020.74
2018-09-29T09:24:21.843Z,1020.76
2018-09-29T09:25:02.173Z,1020.75
2018-09-29T09:25:42.584Z,1020.74
2018-09-29T09:26:23.035Z,1020.7
2018-09-29T09:28:20.473Z,1020.68
2018-09-29T09:29:01.652Z,1020.68
2018-09-29T09:29:42.115Z,1020.66
2018-09-29T09:30:22.549Z,1020.66
2018-09-29T09:31:03.894Z,1020.65
2018-09-29T09:31:44.328Z,1020.65
2018-09-29T09:32:24.861Z,1020.68
2018-09-29T09:33:05.298Z,1020.6
2018-09-29T09:33:45.808Z,1020.63
2018-09-29T09:34:26.206Z,1020.64
2018-09-29T09:35:06.582Z,1020.64
2018-09-29T09:35:47.020Z,1020.64
2018-09-29T09:36:27.496Z,1020.59
2018-09-29T09:37:07.878Z,1020.55
2018-09-29T09:37:48.216Z,1020.57
2018-09-29T09:38:28.649Z,1020.58
2018-09-29T09:39:09.055Z,1020.52
2018-09-29T09:39:49.587Z,1020.51
2018-09-29T09:40:29.906Z,1020.51
2018-09-29T09:41:10.360Z,1020.53
2018-09-29T09:41:50.822Z,1020.49
2018-09-29T09:42:31.254Z,1020.56
2018-09-29T09:43:11.596Z,1020.52
2018-09-29T09:43:52.140Z,1020.49
2018-09-29T09:44:32.558Z,1020.45
2018-09-29T09:45:13.100Z,1020.46
2018-09-29T09:45:53.505Z,1020.48
2018-09-29T09:46:33.999Z,1020.46
2018-09-29T09:47:14.416Z,1020.42
2018-09-29T09:49:33.417Z,1020.41
2018-09-29T09:54:41.956Z,1020.29
2018-09-29T09:55:22.402Z,1020.3
2018-09-29T09:56:02.854Z,1020.31
2018-09-29T09:56:43.209Z,1020.29
2018-09-29T09:57:23.772Z,1020.27
2018-09-29T09:58:04.215Z,1020.26
2018-09-29T09:58:44.599Z,1020.34
2018-09-29T09:59:25.010Z,1020.28
2018-09-29T10:01:37.877Z,1020.28
2018-09-29T10:02:18.949Z,1020.2